Terminal Aerodrome Forecast
Issued by NWS Bismarck, ND

Home | Current Version | Previous Version | Graphics & Text | Print | Product List | Glossary On
Versions: 1 2 3 4 5 6 7 8 9 10 11 12 13 14 15 16 17
000
FTUS43 KBIS 212100 AAA
TAFISN
TAF AMD
KISN 212106Z 2121/2218 02012KT P6SM VCSH BKN100 OVC150
      TEMPO 2121/2123 -SHRA BKN070
     FM212300 03014KT P6SM -SHRA OVC050
     FM220100 01007KT P6SM SCT035 BKN050=

USA.gov is the U.S. government's official web portal to all federal, state and local government web resources and services.